createdAt,value
2022-12-18T00:00:19.050Z,101270.78
2022-12-18T00:02:48.624Z,101263.88
2022-12-18T00:05:17.295Z,101263.75
2022-12-18T00:07:47.231Z,101278.97
2022-12-18T00:10:15.903Z,101282.25
2022-12-18T00:12:44.331Z,101283.88
2022-12-18T00:15:13.021Z,101275.34
2022-12-18T00:17:41.336Z,101279.72
2022-12-18T00:20:11.913Z,101282.25
2022-12-18T00:22:40.399Z,101287.16
2022-12-18T00:25:10.789Z,101291.50
2022-12-18T00:27:39.166Z,101292.41
2022-12-18T00:30:08.984Z,101294.94
2022-12-18T00:32:38.253Z,101292.97
2022-12-18T00:35:08.676Z,101288.47
2022-12-18T00:37:37.363Z,101288.47
2022-12-18T00:40:10.455Z,101287.38
2022-12-18T00:42:56.429Z,101286.28
2022-12-18T00:45:30.254Z,101281.81
2022-12-18T00:47:59.301Z,101283.25
2022-12-18T00:50:28.062Z,101288.34
2022-12-18T00:52:56.638Z,101281.44
2022-12-18T00:55:26.520Z,101281.44
2022-12-18T00:57:55.270Z,101287.44
2022-12-18T01:00:24.590Z,101277.28
2022-12-18T01:02:53.595Z,101277.28
2022-12-18T01:05:22.285Z,101277.44
2022-12-18T01:07:51.363Z,101278.19
2022-12-18T01:10:20.936Z,101279.97
2022-12-18T01:12:51.401Z,101281.63
2022-12-18T01:15:21.040Z,101280.72
2022-12-18T01:17:49.746Z,101280.53
2022-12-18T01:20:18.162Z,101291.78
2022-12-18T01:22:47.740Z,101292.50
2022-12-18T01:25:16.210Z,101292.91
2022-12-18T01:27:45.937Z,101289.13
2022-12-18T01:30:15.993Z,101286.97
2022-12-18T01:32:44.392Z,101292.44
2022-12-18T01:35:12.717Z,101282.84
2022-12-18T01:37:41.649Z,101292.84
2022-12-18T01:40:11.638Z,101293.41
2022-12-18T01:42:40.452Z,101294.84
2022-12-18T01:45:29.077Z,101299.06
2022-12-18T01:48:00.841Z,101296.34
2022-12-18T01:50:33.674Z,101290.34
2022-12-18T01:53:08.394Z,101290.34
2022-12-18T01:55:42.075Z,101277.84
2022-12-18T01:58:12.567Z,101270.94
2022-12-18T02:00:42.839Z,101263.31
2022-12-18T02:03:11.616Z,101267.69
2022-12-18T02:05:49.171Z,101267.09
2022-12-18T02:08:25.090Z,101262.94
2022-12-18T02:11:07.430Z,101274.91
2022-12-18T02:13:46.169Z,101274.91
2022-12-18T02:16:25.793Z,101264.00
2022-12-18T02:19:00.225Z,101271.63
2022-12-18T02:21:37.273Z,101277.44
2022-12-18T02:24:23.458Z,101279.25
2022-12-18T02:26:57.840Z,101282.09
2022-12-18T02:29:34.070Z,101274.66
2022-12-18T02:32:06.537Z,101257.63
2022-12-18T02:34:39.661Z,101249.47
2022-12-18T02:37:17.302Z,101250.19
2022-12-18T02:39:50.245Z,101249.47
2022-12-18T02:42:20.902Z,101252.00
2022-12-18T02:44:53.524Z,101248.72
2022-12-18T02:47:31.594Z,101257.41
2022-12-18T02:50:10.393Z,101261.56
2022-12-18T02:52:51.696Z,101267.91
2022-12-18T02:55:32.781Z,101257.75
2022-12-18T02:58:17.310Z,101262.97
2022-12-18T03:00:55.178Z,101262.25
2022-12-18T03:03:31.619Z,101259.91
2022-12-18T03:06:08.053Z,101257.34
2022-12-18T03:08:41.777Z,101259.16
2022-12-18T03:11:14.238Z,101254.81
2022-12-18T03:13:49.281Z,101253.38
2022-12-18T03:16:24.313Z,101248.28
2022-12-18T03:18:56.948Z,101249.00
2022-12-18T03:21:32.026Z,101251.88
2022-12-18T03:24:02.360Z,101259.31
2022-12-18T03:26:32.282Z,101258.44
2022-12-18T03:29:11.931Z,101260.22
2022-12-18T03:31:45.029Z,101258.75
2022-12-18T03:34:20.024Z,101250.41
2022-12-18T03:36:49.633Z,101243.53
2022-12-18T03:39:18.246Z,101235.19
2022-12-18T03:42:03.790Z,101231.00
2022-12-18T03:44:47.196Z,101230.09
2022-12-18T03:47:19.654Z,101228.28
2022-12-18T03:49:57.873Z,101233.72
2022-12-18T03:52:31.954Z,101238.81
2022-12-18T03:55:02.374Z,101245.66
2022-12-18T03:57:34.931Z,101244.94
2022-12-18T04:00:12.461Z,101246.56
2022-12-18T04:02:57.415Z,101241.47
2022-12-18T04:05:36.321Z,101242.22
2022-12-18T04:08:05.469Z,101242.56
2022-12-18T04:10:38.500Z,101233.13
2022-12-18T04:13:06.870Z,101234.75
2022-12-18T04:15:39.784Z,101238.22
2022-12-18T04:18:12.206Z,101240.56
2022-12-18T04:20:44.456Z,101243.28
2022-12-18T04:23:14.418Z,101239.84
2022-12-18T04:25:43.184Z,101246.75
2022-12-18T04:28:17.039Z,101239.13
2022-12-18T04:30:47.124Z,101245.09
2022-12-18T04:33:16.523Z,101234.94
2022-12-18T04:35:45.040Z,101249.28
2022-12-18T04:38:13.658Z,101230.59
2022-12-18T04:40:42.175Z,101237.66
2022-12-18T04:43:20.153Z,101241.09
2022-12-18T04:45:50.634Z,101241.09
2022-12-18T04:48:19.040Z,101245.28
2022-12-18T04:50:47.427Z,101239.44
2022-12-18T04:53:15.778Z,101236.91
2022-12-18T04:55:44.355Z,101240.19
2022-12-18T04:58:12.839Z,101234.34
2022-12-18T05:00:41.520Z,101226.00
2022-12-18T05:03:11.588Z,101226.00
2022-12-18T05:05:39.961Z,101226.00
2022-12-18T05:08:08.505Z,101227.81
2022-12-18T05:10:38.443Z,101215.84
2022-12-18T05:13:07.215Z,101220.94
2022-12-18T05:15:36.229Z,101220.94
2022-12-18T05:18:06.337Z,101213.16
2022-12-18T05:20:36.157Z,101210.63
2022-12-18T05:23:04.782Z,101212.25
2022-12-18T05:25:33.196Z,101205.53
2022-12-18T05:28:01.605Z,101191.94
2022-12-18T05:30:30.424Z,101191.19
2022-12-18T05:32:59.255Z,101191.75
2022-12-18T05:35:27.944Z,101196.13
2022-12-18T05:37:58.159Z,101191.03
2022-12-18T05:40:26.486Z,101197.75
2022-12-18T05:42:56.093Z,101190.84
2022-12-18T05:45:24.923Z,101194.31
2022-12-18T05:47:53.298Z,101200.84
2022-12-18T05:50:22.597Z,101206.81
2022-12-18T05:52:50.965Z,101217.00
2022-12-18T05:55:20.825Z,101217.56
2022-12-18T05:57:49.281Z,101227.88
2022-12-18T06:00:18.947Z,101228.63
2022-12-18T06:02:49.484Z,101226.09
2022-12-18T06:05:18.330Z,101227.72
2022-12-18T06:07:46.865Z,101223.56
2022-12-18T06:10:15.809Z,101226.97
2022-12-18T06:12:45.994Z,101234.44
2022-12-18T06:15:14.313Z,101240.56
2022-12-18T06:17:43.101Z,101236.09
2022-12-18T06:20:12.080Z,101240.25
2022-12-18T06:22:40.489Z,101254.75
2022-12-18T06:25:10.122Z,101259.66
2022-12-18T06:27:38.744Z,101262.22
2022-12-18T06:30:11.281Z,101263.13
2022-12-18T06:32:39.771Z,101263.84
2022-12-18T06:35:09.707Z,101272.19
2022-12-18T06:37:38.793Z,101267.84
2022-12-18T06:40:09.035Z,101260.22
2022-12-18T06:42:37.347Z,101260.22
2022-12-18T06:45:06.683Z,101260.22
2022-12-18T06:47:36.764Z,101255.13
2022-12-18T06:50:06.843Z,101256.78
2022-12-18T06:52:35.789Z,101253.38
2022-12-18T06:55:05.536Z,101253.38
2022-12-18T06:57:34.289Z,101246.47
2022-12-18T07:00:03.967Z,101247.19
2022-12-18T07:02:33.122Z,101241.22
2022-12-18T07:05:08.914Z,101237.75
2022-12-18T07:07:39.332Z,101220.72
2022-12-18T07:10:08.784Z,101220.72
2022-12-18T07:12:37.522Z,101223.97
2022-12-18T07:15:07.899Z,101220.72
2022-12-18T07:17:36.597Z,101220.72
2022-12-18T07:20:08.278Z,101223.97
2022-12-18T07:22:36.975Z,101217.13
2022-12-18T07:25:06.737Z,101215.31
2022-12-18T07:27:35.126Z,101210.25
2022-12-18T07:30:03.918Z,101213.50
2022-12-18T07:32:33.032Z,101213.50
2022-12-18T07:35:01.365Z,101195.72
2022-12-18T07:37:31.606Z,101201.53
2022-12-18T07:40:00.094Z,101207.34
2022-12-18T07:42:34.599Z,101206.28
2022-12-18T07:45:04.740Z,101206.28
2022-12-18T07:47:36.388Z,101197.59
2022-12-18T07:50:05.964Z,101199.03
2022-12-18T07:52:35.993Z,101194.88
2022-12-18T07:55:05.358Z,101184.00
2022-12-18T07:57:55.175Z,101193.41
2022-12-18T08:00:25.801Z,101192.69
2022-12-18T08:02:54.796Z,101197.19
2022-12-18T08:05:23.350Z,101199.00
2022-12-18T08:07:53.624Z,101201.91
2022-12-18T08:10:23.601Z,101194.59
2022-12-18T08:12:52.961Z,101199.13
2022-12-18T08:15:21.537Z,101192.72
2022-12-18T08:17:49.947Z,101198.16
2022-12-18T08:20:19.288Z,101188.31
2022-12-18T08:22:47.750Z,101194.47
2022-12-18T08:25:18.258Z,101185.72
2022-12-18T08:27:46.916Z,101184.22
2022-12-18T08:30:16.146Z,101172.59
2022-12-18T08:32:44.546Z,101159.19
2022-12-18T08:35:16.419Z,101154.41
2022-12-18T08:37:47.101Z,101162.38
2022-12-18T08:40:17.416Z,101159.25
2022-12-18T08:43:03.278Z,101154.50
2022-12-18T08:45:32.105Z,101154.81
2022-12-18T08:48:00.484Z,101141.41
2022-12-18T08:50:32.276Z,101145.31
2022-12-18T08:53:00.783Z,101143.88
2022-12-18T08:55:31.054Z,101138.94
2022-12-18T08:57:59.467Z,101145.06
2022-12-18T09:00:27.932Z,101151.97
2022-12-18T09:02:56.346Z,101146.34
2022-12-18T09:05:24.834Z,101140.34
2022-12-18T09:07:53.772Z,101147.25
2022-12-18T09:10:22.482Z,101137.94
2022-12-18T09:12:53.972Z,101143.78
2022-12-18T09:15:22.343Z,101127.63
2022-12-18T09:17:50.961Z,101133.75
2022-12-18T09:20:19.455Z,101134.09
2022-12-18T09:22:47.876Z,101130.97
2022-12-18T09:25:16.500Z,101131.13
2022-12-18T09:27:45.326Z,101112.19
2022-12-18T09:30:15.705Z,101111.03
2022-12-18T09:32:44.167Z,101117.19
2022-12-18T09:35:12.540Z,101124.41
2022-12-18T09:37:43.025Z,101119.66
2022-12-18T09:40:16.615Z,101114.31
2022-12-18T09:42:51.837Z,101110.44
2022-12-18T09:45:22.382Z,101103.16
2022-12-18T09:47:52.230Z,101100.91
2022-12-18T09:50:30.570Z,101101.25
2022-12-18T09:53:02.733Z,101111.00
2022-12-18T09:55:37.511Z,101114.75
2022-12-18T09:58:15.779Z,101117.75
2022-12-18T10:00:46.705Z,101128.28
2022-12-18T10:03:17.022Z,101126.94
2022-12-18T10:05:58.473Z,101117.22
2022-12-18T10:08:39.005Z,101120.28
2022-12-18T10:11:27.349Z,101108.78
2022-12-18T10:14:03.639Z,101102.22
2022-12-18T10:16:44.852Z,101094.31
2022-12-18T10:19:28.438Z,101089.50
2022-12-18T10:22:05.326Z,101077.25
2022-12-18T10:24:44.746Z,101065.88
2022-12-18T10:27:17.644Z,101062.94
2022-12-18T10:29:47.665Z,101066.69
2022-12-18T10:32:20.553Z,101067.91
2022-12-18T10:34:55.330Z,101061.50
2022-12-18T10:37:29.703Z,101049.41
2022-12-18T10:40:18.224Z,101050.78
2022-12-18T10:43:06.967Z,101042.53
2022-12-18T10:45:36.054Z,101033.41
2022-12-18T10:48:07.164Z,101035.38
2022-12-18T10:53:30.377Z,101025.03
2022-12-18T10:56:05.374Z,101025.34
2022-12-18T10:58:36.852Z,101015.47
2022-12-18T11:01:17.842Z,101022.69
2022-12-18T11:04:02.669Z,101028.97
2022-12-18T11:06:32.108Z,101021.50
2022-12-18T11:09:12.334Z,101015.78
2022-12-18T11:11:42.059Z,101020.44
2022-12-18T11:14:21.868Z,101008.91
2022-12-18T11:19:44.054Z,101012.81
2022-12-18T11:22:24.132Z,101002.94
2022-12-18T11:25:30.850Z,101005.59
2022-12-18T11:27:53.749Z,100993.94
2022-12-18T11:30:29.813Z,101000.22
2022-12-18T11:33:07.295Z,100997.09
2022-12-18T11:35:50.452Z,100992.16
2022-12-18T11:38:25.121Z,100981.34
2022-12-18T11:40:58.815Z,100985.22
2022-12-18T11:43:32.781Z,100974.28
2022-12-18T11:46:06.901Z,100970.25
2022-12-18T11:48:41.510Z,100973.81
2022-12-18T11:51:17.986Z,100958.84
2022-12-18T11:53:46.310Z,100945.34
2022-12-18T11:56:33.524Z,100940.69
2022-12-18T11:59:14.925Z,100947.72
2022-12-18T12:01:53.807Z,100929.88
2022-12-18T12:05:00.701Z,100925.81
2022-12-18T12:07:46.257Z,100925.09
2022-12-18T12:10:35.119Z,100926.13
2022-12-18T12:13:27.071Z,100928.81
2022-12-18T12:16:08.734Z,100921.31
2022-12-18T12:18:56.187Z,100937.78
2022-12-18T12:21:31.264Z,100932.09
2022-12-18T12:24:20.395Z,100927.16
2022-12-18T12:26:59.737Z,100934.19
2022-12-18T12:29:45.128Z,100917.41
2022-12-18T12:32:33.987Z,100921.88
2022-12-18T12:35:22.170Z,100909.28
2022-12-18T12:38:05.802Z,100908.53
2022-12-18T12:41:02.462Z,100894.13
2022-12-18T12:43:43.345Z,100900.28
2022-12-18T12:46:22.353Z,100888.41
2022-12-18T12:48:54.979Z,100896.34
2022-12-18T12:51:26.992Z,100889.44
2022-12-18T12:53:59.583Z,100899.97
2022-12-18T12:56:39.220Z,100892.44
2022-12-18T12:59:16.660Z,100896.94
2022-12-18T13:01:57.201Z,100886.72
2022-12-18T13:04:35.058Z,100902.31
2022-12-18T13:07:12.284Z,100888.81
2022-12-18T13:10:26.897Z,100897.22
2022-12-18T13:12:57.790Z,100894.66
2022-12-18T13:15:33.645Z,100892.41
2022-12-18T13:18:16.122Z,100881.47
2022-12-18T13:20:53.122Z,100877.09
2022-12-18T13:23:37.426Z,100868.06
2022-12-18T13:26:37.941Z,100868.97
2022-12-18T13:29:07.359Z,100879.19
2022-12-18T13:32:04.250Z,100879.19
2022-12-18T13:34:34.071Z,100885.19
2022-12-18T13:37:44.666Z,100880.09
2022-12-18T13:40:57.383Z,100878.00
2022-12-18T13:43:45.139Z,100889.84
2022-12-18T13:46:24.122Z,100892.41
2022-12-18T13:49:00.831Z,100884.00
2022-12-18T13:51:33.064Z,100882.47
2022-12-18T13:54:04.923Z,100883.38
2022-12-18T13:56:36.400Z,100871.69
2022-12-18T13:59:17.886Z,100869.28
2022-12-18T14:01:55.380Z,100865.66
2022-12-18T14:04:28.587Z,100858.75
2022-12-18T14:07:03.001Z,100860.56
2022-12-18T14:09:34.296Z,100855.47
2022-12-18T14:12:20.642Z,100854.56
2022-12-18T14:14:55.215Z,100851.28
2022-12-18T14:17:25.569Z,100841.66
2022-12-18T14:19:55.059Z,100840.91
2022-12-18T14:22:28.884Z,100836.56
2022-12-18T14:25:20.294Z,100842.56
2022-12-18T14:27:52.086Z,100827.88
2022-12-18T14:30:31.071Z,100815.25
2022-12-18T14:33:04.933Z,100810.94
2022-12-18T14:35:34.120Z,100797.13
2022-12-18T14:38:24.710Z,100796.38
2022-12-18T14:41:03.696Z,100790.38
2022-12-18T14:43:35.036Z,100786.00
2022-12-18T14:46:06.431Z,100782.56
2022-12-18T14:48:41.207Z,100775.06
2022-12-18T14:51:19.174Z,100772.50
2022-12-18T14:53:54.389Z,100767.25
2022-12-18T14:56:26.739Z,100769.97
2022-12-18T14:58:58.562Z,100758.84
2022-12-18T15:01:32.525Z,100756.31
2022-12-18T15:04:03.021Z,100749.53
2022-12-18T15:06:38.094Z,100752.09
2022-12-18T15:09:23.552Z,100750.28
2022-12-18T15:11:57.931Z,100746.25
2022-12-18T15:14:35.710Z,100741.88
2022-12-18T15:17:15.613Z,100736.78
2022-12-18T15:19:46.798Z,100734.09
2022-12-18T15:22:29.314Z,100739.19
2022-12-18T15:25:00.432Z,100740.84
2022-12-18T15:27:33.195Z,100745.94
2022-12-18T15:30:21.288Z,100734.09
2022-12-18T15:32:52.097Z,100738.28
2022-12-18T15:35:24.237Z,100738.28
2022-12-18T15:37:54.146Z,100733.19
2022-12-18T15:40:25.199Z,100733.34
2022-12-18T15:43:14.246Z,100724.78
2022-12-18T15:45:42.960Z,100733.94
2022-12-18T15:48:27.741Z,100728.09
2022-12-18T15:50:59.406Z,100726.44
2022-12-18T15:53:33.387Z,100734.09
2022-12-18T15:56:20.189Z,100718.63
2022-12-18T15:58:48.740Z,100721.06
2022-12-18T16:01:29.209Z,100725.38
2022-12-18T16:04:00.087Z,100716.88
2022-12-18T16:06:36.494Z,100726.03
2022-12-18T16:09:20.525Z,100714.03
2022-12-18T16:11:52.956Z,100712.53
2022-12-18T16:14:24.674Z,100711.63
2022-12-18T16:16:56.250Z,100708.31
2022-12-18T16:19:27.529Z,100711.75
2022-12-18T16:21:59.876Z,100699.75
2022-12-18T16:24:34.737Z,100702.31
2022-12-18T16:27:03.190Z,100710.88
2022-12-18T16:29:31.909Z,100704.88
2022-12-18T16:32:02.600Z,100701.56
2022-12-18T16:34:36.108Z,100706.66
2022-12-18T16:37:08.060Z,100709.97
2022-12-18T16:39:37.410Z,100708.31
2022-12-18T16:42:09.170Z,100715.19
2022-12-18T16:44:38.271Z,100702.31
2022-12-18T16:47:07.219Z,100708.44
2022-12-18T16:49:39.440Z,100717.72
2022-12-18T16:52:09.235Z,100723.72
2022-12-18T16:54:37.662Z,100718.53
2022-12-18T16:57:06.652Z,100710.97
2022-12-18T16:59:36.830Z,100716.09
2022-12-18T17:02:06.769Z,100720.44
2022-12-18T17:04:38.105Z,100727.19
2022-12-18T17:07:06.584Z,100725.38
2022-12-18T17:09:35.347Z,100716.88
2022-12-18T17:12:04.773Z,100712.03
2022-12-18T17:14:35.135Z,100693.91
2022-12-18T17:17:21.257Z,100690.31
2022-12-18T17:19:56.457Z,100681.75
2022-12-18T17:22:24.864Z,100685.97
2022-12-18T17:24:53.590Z,100684.31
2022-12-18T17:27:21.966Z,100669.91
2022-12-18T17:29:50.415Z,100665.69
2022-12-18T17:32:19.489Z,100665.84
2022-12-18T17:34:48.222Z,100659.84
2022-12-18T17:37:17.986Z,100663.31
2022-12-18T17:39:46.428Z,100652.19
2022-12-18T17:42:16.089Z,100653.84
2022-12-18T17:44:45.335Z,100660.75
2022-12-18T17:47:14.079Z,100662.41
2022-12-18T17:49:42.546Z,100664.06
2022-12-18T17:52:11.656Z,100662.41
2022-12-18T17:54:42.359Z,100670.94
2022-12-18T17:57:11.468Z,100671.56
2022-12-18T17:59:39.956Z,100687.75
2022-12-18T18:02:10.185Z,100675.75
2022-12-18T18:04:38.683Z,100691.06
2022-12-18T18:07:07.052Z,100685.97
2022-12-18T18:09:35.485Z,100687.59
2022-12-18T18:12:23.623Z,100697.81
2022-12-18T18:14:52.129Z,100689.09
2022-12-18T18:17:20.999Z,100694.38
2022-12-18T18:19:49.938Z,100680.84
2022-12-18T18:22:19.023Z,100692.88
2022-12-18T18:24:47.904Z,100684.47
2022-12-18T18:27:17.746Z,100684.47
2022-12-18T18:29:46.365Z,100689.56
2022-12-18T18:32:15.177Z,100681.91
2022-12-18T18:34:44.236Z,100691.22
2022-12-18T18:37:12.994Z,100704.88
2022-12-18T18:39:41.487Z,100708.44
2022-12-18T18:42:10.494Z,100710.09
2022-12-18T18:44:44.428Z,100700.03
2022-12-18T18:47:16.065Z,100715.06
2022-12-18T18:49:44.517Z,100698.88
2022-12-18T18:52:13.099Z,100701.25
2022-12-18T18:55:03.835Z,100706.38
2022-12-18T18:57:30.834Z,100700.22
2022-12-18T19:00:01.332Z,100690.91
2022-12-18T19:02:30.523Z,100694.38
2022-12-18T19:04:58.989Z,100696.00
2022-12-18T19:07:30.372Z,100695.91
2022-12-18T19:10:04.538Z,100711.22
2022-12-18T19:12:52.508Z,100699.06
2022-12-18T19:15:23.457Z,100702.19
2022-12-18T19:17:52.304Z,100704.75
2022-12-18T19:20:20.969Z,100712.41
2022-12-18T19:22:55.538Z,100725.16
2022-12-18T19:25:38.470Z,100729.41
2022-12-18T19:28:21.430Z,100727.72
2022-12-18T19:30:58.975Z,100727.72
2022-12-18T19:33:45.644Z,100726.84
2022-12-18T19:36:19.114Z,100715.84
2022-12-18T19:38:48.870Z,100716.75
2022-12-18T19:41:18.870Z,100706.56
2022-12-18T19:43:48.604Z,100713.44
2022-12-18T19:46:21.275Z,100713.75
2022-12-18T19:48:50.785Z,100708.75
2022-12-18T19:51:22.681Z,100700.38
2022-12-18T19:53:57.788Z,100685.22
2022-12-18T19:56:31.849Z,100688.50
2022-12-18T19:59:00.852Z,100691.06
2022-12-18T20:01:32.190Z,100692.88
2022-12-18T20:04:01.245Z,100690.47
2022-12-18T20:06:34.274Z,100691.34
2022-12-18T20:09:07.135Z,100688.03
2022-12-18T20:11:41.297Z,100682.91
2022-12-18T20:14:11.261Z,100689.81
2022-12-18T20:16:41.914Z,100678.13
2022-12-18T20:19:12.456Z,100690.13
2022-12-18T20:21:41.460Z,100678.25
2022-12-18T20:24:10.735Z,100681.56
2022-12-18T20:26:40.861Z,100691.28
2022-12-18T20:29:09.919Z,100690.38
2022-12-18T20:31:40.000Z,100698.03
2022-12-18T20:34:08.886Z,100699.84
2022-12-18T20:36:38.683Z,100680.31
2022-12-18T20:39:10.036Z,100688.88
2022-12-18T20:41:40.289Z,100690.69
2022-12-18T20:44:23.134Z,100692.59
2022-12-18T20:46:55.617Z,100694.25
2022-12-18T20:49:26.066Z,100695.91
2022-12-18T20:51:57.583Z,100696.03
2022-12-18T20:54:28.582Z,100696.03
2022-12-18T20:56:57.876Z,100691.84
2022-12-18T20:59:26.865Z,100702.94
2022-12-18T21:01:57.394Z,100694.53
2022-12-18T21:04:26.410Z,100693.75
2022-12-18T21:07:02.085Z,100693.00
2022-12-18T21:09:37.832Z,100686.09
2022-12-18T21:12:30.172Z,100685.34
2022-12-18T21:15:03.750Z,100700.53
2022-12-18T21:17:34.711Z,100695.56
2022-12-18T21:20:17.618Z,100694.94
2022-12-18T21:22:46.813Z,100687.28
2022-12-18T21:25:15.401Z,100693.44
2022-12-18T21:27:44.765Z,100687.56
2022-12-18T21:30:14.994Z,100692.66
2022-12-18T21:32:45.123Z,100687.56
2022-12-18T21:35:13.658Z,100699.56
2022-12-18T21:37:42.551Z,100696.09
2022-12-18T21:40:12.385Z,100684.88
2022-12-18T21:43:10.036Z,100692.81
2022-12-18T21:45:39.967Z,100674.53
2022-12-18T21:48:09.905Z,100684.88
2022-12-18T21:50:38.464Z,100690.88
2022-12-18T21:53:06.770Z,100684.09
2022-12-18T21:55:35.773Z,100692.66
2022-12-18T21:58:04.391Z,100687.56
2022-12-18T22:00:32.874Z,100679.78
2022-12-18T22:03:16.917Z,100668.69
2022-12-18T22:05:51.265Z,100662.81
2022-12-18T22:08:40.764Z,100669.84
2022-12-18T22:11:14.045Z,100665.63
2022-12-18T22:13:43.570Z,100662.31
2022-12-18T22:16:11.960Z,100665.78
2022-12-18T22:18:40.869Z,100662.47
2022-12-18T22:21:29.025Z,100656.59
2022-12-18T22:24:00.344Z,100647.16
2022-12-18T22:26:35.065Z,100647.41
2022-12-18T22:29:24.655Z,100647.41
2022-12-18T22:31:53.133Z,100639.75
2022-12-18T22:34:23.228Z,100638.88
2022-12-18T22:36:53.478Z,100634.81
2022-12-18T22:39:24.870Z,100635.81
2022-12-18T22:41:53.828Z,100639.16
2022-12-18T22:44:22.941Z,100634.16
2022-12-18T22:46:56.169Z,100632.66
2022-12-18T22:49:36.096Z,100634.16
2022-12-18T22:52:09.567Z,100630.84
2022-12-18T22:54:38.794Z,100639.41
2022-12-18T22:57:07.284Z,100626.78
2022-12-18T22:59:35.768Z,100628.44
2022-12-18T23:02:04.449Z,100616.59
2022-12-18T23:04:36.549Z,100611.47
2022-12-18T23:07:08.425Z,100611.47
2022-12-18T23:09:42.027Z,100605.63
2022-12-18T23:12:15.919Z,100604.84
2022-12-18T23:14:44.775Z,100604.84
2022-12-18T23:17:14.162Z,100601.53
2022-12-18T23:19:48.534Z,100604.22
2022-12-18T23:22:19.095Z,100596.41
2022-12-18T23:24:48.660Z,100594.91
2022-12-18T23:27:17.091Z,100579.59
2022-12-18T23:29:45.665Z,100589.94
2022-12-18T23:32:16.497Z,100583.19
2022-12-18T23:34:45.204Z,100580.63
2022-12-18T23:37:24.988Z,100573.09
2022-12-18T23:40:03.804Z,100573.84
2022-12-18T23:42:32.252Z,100565.44
2022-12-18T23:45:00.708Z,100571.44
2022-12-18T23:47:36.428Z,100570.81
2022-12-18T23:50:05.623Z,100557.91
2022-12-18T23:52:34.210Z,100552.97
2022-12-18T23:55:04.143Z,100544.53
2022-12-18T23:57:32.719Z,100549.75
